sensor_id;sensor_type;location;lat;lon;timestamp;P1;durP1;ratioP1;P2;durP2;ratioP2
68273;SDS011;55104;47.356;19.448;2024-01-11T00:01:21;20.13;;;7.90;;
68273;SDS011;55104;47.356;19.448;2024-01-11T00:04:24;24.75;;;9.32;;
68273;SDS011;55104;47.356;19.448;2024-01-11T00:07:28;13.75;;;7.90;;
68273;SDS011;55104;47.356;19.448;2024-01-11T00:10:30;21.58;;;9.32;;
68273;SDS011;55104;47.356;19.448;2024-01-11T00:13:32;23.53;;;10.30;;
68273;SDS011;55104;47.356;19.448;2024-01-11T00:16:34;30.27;;;10.60;;
68273;SDS011;55104;47.356;19.448;2024-01-11T00:19:37;29.65;;;12.15;;
68273;SDS011;55104;47.356;19.448;2024-01-11T00:22:39;17.20;;;9.23;;
68273;SDS011;55104;47.356;19.448;2024-01-11T00:25:41;26.73;;;13.45;;
68273;SDS011;55104;47.356;19.448;2024-01-11T00:28:44;21.38;;;8.90;;
68273;SDS011;55104;47.356;19.448;2024-01-11T00:31:46;29.73;;;8.75;;
68273;SDS011;55104;47.356;19.448;2024-01-11T00:34:49;14.27;;;7.85;;
68273;SDS011;55104;47.356;19.448;2024-01-11T00:37:51;14.82;;;8.35;;
68273;SDS011;55104;47.356;19.448;2024-01-11T00:40:54;17.95;;;9.75;;
68273;SDS011;55104;47.356;19.448;2024-01-11T00:43:56;11.27;;;7.40;;
68273;SDS011;55104;47.356;19.448;2024-01-11T00:46:58;22.65;;;12.77;;
68273;SDS011;55104;47.356;19.448;2024-01-11T00:50:01;18.95;;;8.98;;
68273;SDS011;55104;47.356;19.448;2024-01-11T00:53:03;20.90;;;8.80;;
68273;SDS011;55104;47.356;19.448;2024-01-11T00:56:05;18.98;;;10.95;;
68273;SDS011;55104;47.356;19.448;2024-01-11T00:59:16;16.38;;;6.88;;
68273;SDS011;55104;47.356;19.448;2024-01-11T01:02:19;22.67;;;12.38;;
68273;SDS011;55104;47.356;19.448;2024-01-11T01:05:22;17.50;;;10.02;;
68273;SDS011;55104;47.356;19.448;2024-01-11T01:08:25;25.00;;;9.85;;
68273;SDS011;55104;47.356;19.448;2024-01-11T01:11:27;22.67;;;9.68;;
68273;SDS011;55104;47.356;19.448;2024-01-11T01:14:29;20.73;;;8.67;;
68273;SDS011;55104;47.356;19.448;2024-01-11T01:17:32;19.10;;;9.60;;
68273;SDS011;55104;47.356;19.448;2024-01-11T01:20:34;16.08;;;9.75;;
68273;SDS011;55104;47.356;19.448;2024-01-11T01:23:37;20.10;;;9.23;;
68273;SDS011;55104;47.356;19.448;2024-01-11T01:26:39;18.95;;;12.70;;
68273;SDS011;55104;47.356;19.448;2024-01-11T01:29:42;24.23;;;9.15;;
68273;SDS011;55104;47.356;19.448;2024-01-11T01:32:44;19.98;;;10.88;;
68273;SDS011;55104;47.356;19.448;2024-01-11T01:35:47;23.35;;;11.63;;
68273;SDS011;55104;47.356;19.448;2024-01-11T01:38:49;25.02;;;10.70;;
68273;SDS011;55104;47.356;19.448;2024-01-11T01:41:52;21.40;;;9.02;;
68273;SDS011;55104;47.356;19.448;2024-01-11T01:44:54;15.83;;;8.53;;
68273;SDS011;55104;47.356;19.448;2024-01-11T01:47:57;21.15;;;9.93;;
68273;SDS011;55104;47.356;19.448;2024-01-11T01:50:59;31.20;;;8.13;;
68273;SDS011;55104;47.356;19.448;2024-01-11T01:54:02;23.23;;;9.80;;
68273;SDS011;55104;47.356;19.448;2024-01-11T01:57:05;16.88;;;8.07;;
68273;SDS011;55104;47.356;19.448;2024-01-11T02:00:12;21.17;;;8.48;;
68273;SDS011;55104;47.356;19.448;2024-01-11T02:03:16;16.05;;;8.13;;
68273;SDS011;55104;47.356;19.448;2024-01-11T02:06:18;13.57;;;8.20;;
68273;SDS011;55104;47.356;19.448;2024-01-11T02:09:25;24.33;;;9.38;;
68273;SDS011;55104;47.356;19.448;2024-01-11T02:12:28;18.23;;;10.75;;
68273;SDS011;55104;47.356;19.448;2024-01-11T02:15:31;15.83;;;9.33;;
68273;SDS011;55104;47.356;19.448;2024-01-11T02:18:33;13.80;;;8.95;;
68273;SDS011;55104;47.356;19.448;2024-01-11T02:21:37;19.70;;;11.40;;
68273;SDS011;55104;47.356;19.448;2024-01-11T02:24:39;18.43;;;9.33;;
68273;SDS011;55104;47.356;19.448;2024-01-11T02:27:48;26.20;;;11.20;;
68273;SDS011;55104;47.356;19.448;2024-01-11T02:30:51;15.57;;;8.07;;
68273;SDS011;55104;47.356;19.448;2024-01-11T02:33:54;25.35;;;9.18;;
68273;SDS011;55104;47.356;19.448;2024-01-11T02:36:58;18.25;;;9.50;;
68273;SDS011;55104;47.356;19.448;2024-01-11T02:40:00;21.05;;;9.77;;
68273;SDS011;55104;47.356;19.448;2024-01-11T02:43:09;15.35;;;12.23;;
68273;SDS011;55104;47.356;19.448;2024-01-11T02:46:12;14.57;;;8.10;;
68273;SDS011;55104;47.356;19.448;2024-01-11T02:49:16;23.10;;;14.20;;
68273;SDS011;55104;47.356;19.448;2024-01-11T02:52:18;19.48;;;13.07;;
68273;SDS011;55104;47.356;19.448;2024-01-11T02:55:20;22.37;;;14.47;;
68273;SDS011;55104;47.356;19.448;2024-01-11T02:58:23;20.15;;;10.90;;
68273;SDS011;55104;47.356;19.448;2024-01-11T03:01:25;41.80;;;15.68;;
68273;SDS011;55104;47.356;19.448;2024-01-11T03:04:27;18.80;;;13.70;;
68273;SDS011;55104;47.356;19.448;2024-01-11T03:07:29;46.75;;;13.55;;
68273;SDS011;55104;47.356;19.448;2024-01-11T03:10:32;16.42;;;11.90;;
68273;SDS011;55104;47.356;19.448;2024-01-11T03:13:34;24.27;;;13.95;;
68273;SDS011;55104;47.356;19.448;2024-01-11T03:16:36;18.13;;;10.23;;
68273;SDS011;55104;47.356;19.448;2024-01-11T03:19:41;20.70;;;11.48;;
68273;SDS011;55104;47.356;19.448;2024-01-11T03:22:47;23.63;;;11.85;;
68273;SDS011;55104;47.356;19.448;2024-01-11T03:25:49;29.90;;;12.10;;
68273;SDS011;55104;47.356;19.448;2024-01-11T03:28:52;29.63;;;14.20;;
68273;SDS011;55104;47.356;19.448;2024-01-11T03:31:54;15.23;;;11.25;;
68273;SDS011;55104;47.356;19.448;2024-01-11T03:34:56;18.08;;;10.10;;
68273;SDS011;55104;47.356;19.448;2024-01-11T03:37:59;27.95;;;12.93;;
68273;SDS011;55104;47.356;19.448;2024-01-11T03:41:01;15.95;;;11.60;;
68273;SDS011;55104;47.356;19.448;2024-01-11T03:44:05;26.55;;;13.27;;
68273;SDS011;55104;47.356;19.448;2024-01-11T03:47:07;16.57;;;10.63;;
68273;SDS011;55104;47.356;19.448;2024-01-11T03:50:09;26.08;;;13.02;;
68273;SDS011;55104;47.356;19.448;2024-01-11T03:53:11;23.08;;;11.20;;
68273;SDS011;55104;47.356;19.448;2024-01-11T03:56:13;24.53;;;11.30;;
68273;SDS011;55104;47.356;19.448;2024-01-11T03:59:15;29.17;;;11.18;;
68273;SDS011;55104;47.356;19.448;2024-01-11T04:02:18;20.63;;;11.55;;
68273;SDS011;55104;47.356;19.448;2024-01-11T04:05:21;21.52;;;12.60;;
68273;SDS011;55104;47.356;19.448;2024-01-11T04:08:23;20.90;;;12.52;;
68273;SDS011;55104;47.356;19.448;2024-01-11T04:11:29;20.67;;;10.80;;
68273;SDS011;55104;47.356;19.448;2024-01-11T04:14:31;16.30;;;9.85;;
68273;SDS011;55104;47.356;19.448;2024-01-11T04:17:33;24.23;;;12.73;;
68273;SDS011;55104;47.356;19.448;2024-01-11T04:20:36;22.90;;;10.68;;
68273;SDS011;55104;47.356;19.448;2024-01-11T04:23:38;30.38;;;12.88;;
68273;SDS011;55104;47.356;19.448;2024-01-11T04:26:41;27.73;;;13.17;;
68273;SDS011;55104;47.356;19.448;2024-01-11T04:29:44;21.05;;;12.18;;
68273;SDS011;55104;47.356;19.448;2024-01-11T04:32:46;33.53;;;10.77;;
68273;SDS011;55104;47.356;19.448;2024-01-11T04:35:49;23.33;;;11.27;;
68273;SDS011;55104;47.356;19.448;2024-01-11T04:38:51;17.20;;;8.38;;
68273;SDS011;55104;47.356;19.448;2024-01-11T04:41:54;25.02;;;13.25;;
68273;SDS011;55104;47.356;19.448;2024-01-11T04:44:56;25.33;;;11.95;;
68273;SDS011;55104;47.356;19.448;2024-01-11T04:47:59;21.87;;;10.93;;
68273;SDS011;55104;47.356;19.448;2024-01-11T04:51:01;32.75;;;11.82;;
68273;SDS011;55104;47.356;19.448;2024-01-11T04:54:03;27.38;;;15.82;;
68273;SDS011;55104;47.356;19.448;2024-01-11T04:57:06;39.43;;;18.27;;
68273;SDS011;55104;47.356;19.448;2024-01-11T05:00:08;36.03;;;14.32;;
68273;SDS011;55104;47.356;19.448;2024-01-11T05:03:10;19.90;;;11.73;;
68273;SDS011;55104;47.356;19.448;2024-01-11T05:06:20;49.75;;;16.20;;
68273;SDS011;55104;47.356;19.448;2024-01-11T05:09:23;25.25;;;16.20;;
68273;SDS011;55104;47.356;19.448;2024-01-11T05:12:25;30.70;;;17.52;;
68273;SDS011;55104;47.356;19.448;2024-01-11T05:15:27;25.40;;;16.20;;
68273;SDS011;55104;47.356;19.448;2024-01-11T05:18:29;22.67;;;11.40;;
68273;SDS011;55104;47.356;19.448;2024-01-11T05:21:35;34.50;;;18.30;;
68273;SDS011;55104;47.356;19.448;2024-01-11T05:24:38;47.85;;;17.10;;
68273;SDS011;55104;47.356;19.448;2024-01-11T05:27:40;23.80;;;12.87;;
68273;SDS011;55104;47.356;19.448;2024-01-11T05:30:42;41.60;;;16.15;;
68273;SDS011;55104;47.356;19.448;2024-01-11T05:33:45;28.88;;;15.02;;
68273;SDS011;55104;47.356;19.448;2024-01-11T05:36:49;24.70;;;14.85;;
68273;SDS011;55104;47.356;19.448;2024-01-11T05:39:51;33.83;;;15.43;;
68273;SDS011;55104;47.356;19.448;2024-01-11T05:42:53;16.95;;;11.60;;
68273;SDS011;55104;47.356;19.448;2024-01-11T05:45:56;43.97;;;13.82;;
68273;SDS011;55104;47.356;19.448;2024-01-11T05:48:58;28.17;;;15.87;;
68273;SDS011;55104;47.356;19.448;2024-01-11T05:52:00;31.10;;;15.40;;
68273;SDS011;55104;47.356;19.448;2024-01-11T05:55:02;26.15;;;15.75;;
68273;SDS011;55104;47.356;19.448;2024-01-11T05:58:06;18.10;;;14.10;;
68273;SDS011;55104;47.356;19.448;2024-01-11T06:01:08;30.10;;;18.13;;
68273;SDS011;55104;47.356;19.448;2024-01-11T06:04:11;28.15;;;13.60;;
68273;SDS011;55104;47.356;19.448;2024-01-11T06:07:13;29.13;;;15.40;;
68273;SDS011;55104;47.356;19.448;2024-01-11T06:10:16;36.05;;;17.42;;
68273;SDS011;55104;47.356;19.448;2024-01-11T06:13:18;27.92;;;14.50;;
68273;SDS011;55104;47.356;19.448;2024-01-11T06:16:21;29.40;;;18.27;;
68273;SDS011;55104;47.356;19.448;2024-01-11T06:19:23;34.30;;;18.97;;
68273;SDS011;55104;47.356;19.448;2024-01-11T06:22:25;28.77;;;15.35;;
68273;SDS011;55104;47.356;19.448;2024-01-11T06:25:27;22.33;;;15.95;;
68273;SDS011;55104;47.356;19.448;2024-01-11T06:28:30;27.53;;;14.80;;
68273;SDS011;55104;47.356;19.448;2024-01-11T06:31:36;39.13;;;20.65;;
68273;SDS011;55104;47.356;19.448;2024-01-11T06:34:38;35.55;;;23.17;;
68273;SDS011;55104;47.356;19.448;2024-01-11T06:37:43;47.85;;;24.23;;
68273;SDS011;55104;47.356;19.448;2024-01-11T06:40:45;32.38;;;19.73;;
68273;SDS011;55104;47.356;19.448;2024-01-11T06:43:47;36.50;;;21.58;;
68273;SDS011;55104;47.356;19.448;2024-01-11T06:46:50;39.65;;;19.05;;
68273;SDS011;55104;47.356;19.448;2024-01-11T06:49:53;43.17;;;22.57;;
68273;SDS011;55104;47.356;19.448;2024-01-11T06:52:55;42.55;;;24.33;;
68273;SDS011;55104;47.356;19.448;2024-01-11T06:55:57;35.35;;;19.38;;
68273;SDS011;55104;47.356;19.448;2024-01-11T06:58:59;29.10;;;19.80;;
68273;SDS011;55104;47.356;19.448;2024-01-11T07:02:02;50.90;;;21.83;;
68273;SDS011;55104;47.356;19.448;2024-01-11T07:05:06;31.00;;;18.52;;
68273;SDS011;55104;47.356;19.448;2024-01-11T07:08:10;40.47;;;19.55;;
68273;SDS011;55104;47.356;19.448;2024-01-11T07:11:12;35.08;;;18.35;;
68273;SDS011;55104;47.356;19.448;2024-01-11T07:14:14;40.45;;;18.25;;
68273;SDS011;55104;47.356;19.448;2024-01-11T07:17:17;38.33;;;18.20;;
68273;SDS011;55104;47.356;19.448;2024-01-11T07:20:19;56.10;;;18.93;;
68273;SDS011;55104;47.356;19.448;2024-01-11T07:23:22;52.05;;;21.83;;
68273;SDS011;55104;47.356;19.448;2024-01-11T07:26:24;37.97;;;21.35;;
68273;SDS011;55104;47.356;19.448;2024-01-11T07:29:27;37.87;;;22.37;;
68273;SDS011;55104;47.356;19.448;2024-01-11T07:32:29;52.17;;;23.40;;
68273;SDS011;55104;47.356;19.448;2024-01-11T07:35:32;37.75;;;25.23;;
68273;SDS011;55104;47.356;19.448;2024-01-11T07:38:34;38.60;;;23.35;;
68273;SDS011;55104;47.356;19.448;2024-01-11T07:41:36;62.45;;;31.60;;
68273;SDS011;55104;47.356;19.448;2024-01-11T07:44:42;45.45;;;32.38;;
68273;SDS011;55104;47.356;19.448;2024-01-11T07:47:45;46.25;;;25.98;;
68273;SDS011;55104;47.356;19.448;2024-01-11T07:50:47;58.63;;;24.90;;
68273;SDS011;55104;47.356;19.448;2024-01-11T07:53:49;45.55;;;21.27;;
68273;SDS011;55104;47.356;19.448;2024-01-11T07:56:51;43.60;;;25.67;;
68273;SDS011;55104;47.356;19.448;2024-01-11T07:59:54;43.50;;;21.63;;
68273;SDS011;55104;47.356;19.448;2024-01-11T08:02:57;41.08;;;22.00;;
68273;SDS011;55104;47.356;19.448;2024-01-11T08:05:59;38.35;;;19.08;;
68273;SDS011;55104;47.356;19.448;2024-01-11T08:09:02;29.27;;;20.33;;
68273;SDS011;55104;47.356;19.448;2024-01-11T08:12:06;26.60;;;15.18;;
68273;SDS011;55104;47.356;19.448;2024-01-11T08:15:09;25.27;;;13.52;;
68273;SDS011;55104;47.356;19.448;2024-01-11T08:18:14;26.50;;;14.18;;
68273;SDS011;55104;47.356;19.448;2024-01-11T08:21:17;23.83;;;9.77;;
68273;SDS011;55104;47.356;19.448;2024-01-11T08:24:19;36.08;;;10.73;;
68273;SDS011;55104;47.356;19.448;2024-01-11T08:27:21;17.38;;;9.65;;
68273;SDS011;55104;47.356;19.448;2024-01-11T08:30:24;18.17;;;9.63;;
68273;SDS011;55104;47.356;19.448;2024-01-11T08:33:26;21.77;;;8.10;;
68273;SDS011;55104;47.356;19.448;2024-01-11T08:36:31;14.88;;;8.00;;
68273;SDS011;55104;47.356;19.448;2024-01-11T08:39:37;23.63;;;11.35;;
68273;SDS011;55104;47.356;19.448;2024-01-11T08:42:41;27.73;;;9.80;;
68273;SDS011;55104;47.356;19.448;2024-01-11T08:45:44;17.33;;;10.13;;
68273;SDS011;55104;47.356;19.448;2024-01-11T08:48:46;14.68;;;8.40;;
68273;SDS011;55104;47.356;19.448;2024-01-11T08:51:49;29.63;;;11.23;;
68273;SDS011;55104;47.356;19.448;2024-01-11T08:54:51;17.83;;;10.10;;
68273;SDS011;55104;47.356;19.448;2024-01-11T08:57:54;20.50;;;11.55;;
68273;SDS011;55104;47.356;19.448;2024-01-11T09:00:56;16.53;;;10.00;;
68273;SDS011;55104;47.356;19.448;2024-01-11T09:03:58;19.20;;;9.02;;
68273;SDS011;55104;47.356;19.448;2024-01-11T09:07:00;15.85;;;8.38;;
68273;SDS011;55104;47.356;19.448;2024-01-11T09:10:03;11.27;;;7.40;;
68273;SDS011;55104;47.356;19.448;2024-01-11T09:13:08;14.95;;;7.50;;
68273;SDS011;55104;47.356;19.448;2024-01-11T09:16:16;11.52;;;6.22;;
68273;SDS011;55104;47.356;19.448;2024-01-11T09:19:18;16.73;;;7.13;;
68273;SDS011;55104;47.356;19.448;2024-01-11T09:22:21;15.77;;;6.07;;
68273;SDS011;55104;47.356;19.448;2024-01-11T09:25:23;21.27;;;7.18;;
68273;SDS011;55104;47.356;19.448;2024-01-11T09:28:25;9.85;;;5.55;;
68273;SDS011;55104;47.356;19.448;2024-01-11T09:31:28;17.60;;;6.17;;
68273;SDS011;55104;47.356;19.448;2024-01-11T09:34:31;14.40;;;5.70;;
68273;SDS011;55104;47.356;19.448;2024-01-11T09:37:33;17.08;;;6.93;;
68273;SDS011;55104;47.356;19.448;2024-01-11T09:40:36;17.02;;;5.55;;
68273;SDS011;55104;47.356;19.448;2024-01-11T09:43:40;18.05;;;6.93;;
68273;SDS011;55104;47.356;19.448;2024-01-11T09:46:43;9.85;;;5.15;;
68273;SDS011;55104;47.356;19.448;2024-01-11T09:49:48;10.65;;;5.00;;
68273;SDS011;55104;47.356;19.448;2024-01-11T09:52:53;15.07;;;5.80;;
68273;SDS011;55104;47.356;19.448;2024-01-11T09:55:56;11.65;;;5.95;;
68273;SDS011;55104;47.356;19.448;2024-01-11T09:59:00;9.55;;;5.78;;
68273;SDS011;55104;47.356;19.448;2024-01-11T10:02:02;15.13;;;7.03;;
68273;SDS011;55104;47.356;19.448;2024-01-11T10:05:05;12.93;;;4.47;;
68273;SDS011;55104;47.356;19.448;2024-01-11T10:08:08;23.95;;;8.13;;
68273;SDS011;55104;47.356;19.448;2024-01-11T10:11:10;17.10;;;7.82;;
68273;SDS011;55104;47.356;19.448;2024-01-11T10:14:13;10.43;;;5.00;;
68273;SDS011;55104;47.356;19.448;2024-01-11T10:17:16;14.68;;;6.07;;
68273;SDS011;55104;47.356;19.448;2024-01-11T10:20:23;14.35;;;7.03;;
68273;SDS011;55104;47.356;19.448;2024-01-11T10:23:27;10.07;;;4.83;;
68273;SDS011;55104;47.356;19.448;2024-01-11T10:26:31;17.38;;;6.75;;
68273;SDS011;55104;47.356;19.448;2024-01-11T10:29:35;9.55;;;4.40;;
68273;SDS011;55104;47.356;19.448;2024-01-11T10:32:41;11.33;;;5.63;;
68273;SDS011;55104;47.356;19.448;2024-01-11T10:35:43;13.75;;;4.88;;
68273;SDS011;55104;47.356;19.448;2024-01-11T10:38:46;11.52;;;3.80;;
68273;SDS011;55104;47.356;19.448;2024-01-11T10:41:51;10.00;;;3.95;;
68273;SDS011;55104;47.356;19.448;2024-01-11T10:44:55;10.70;;;3.78;;
68273;SDS011;55104;47.356;19.448;2024-01-11T10:48:03;11.25;;;4.07;;
68273;SDS011;55104;47.356;19.448;2024-01-11T10:51:09;6.55;;;2.97;;
68273;SDS011;55104;47.356;19.448;2024-01-11T10:54:16;5.70;;;2.20;;
68273;SDS011;55104;47.356;19.448;2024-01-11T10:57:19;7.88;;;3.08;;
68273;SDS011;55104;47.356;19.448;2024-01-11T11:00:22;19.50;;;4.13;;
68273;SDS011;55104;47.356;19.448;2024-01-11T11:03:25;6.30;;;4.57;;
68273;SDS011;55104;47.356;19.448;2024-01-11T11:06:27;10.05;;;3.08;;
68273;SDS011;55104;47.356;19.448;2024-01-11T11:09:32;12.00;;;3.45;;
68273;SDS011;55104;47.356;19.448;2024-01-11T11:12:36;6.05;;;2.50;;
68273;SDS011;55104;47.356;19.448;2024-01-11T11:15:42;8.13;;;3.03;;
68273;SDS011;55104;47.356;19.448;2024-01-11T11:18:47;5.35;;;2.17;;
68273;SDS011;55104;47.356;19.448;2024-01-11T11:21:49;5.47;;;3.22;;
68273;SDS011;55104;47.356;19.448;2024-01-11T11:25:11;7.83;;;2.27;;
68273;SDS011;55104;47.356;19.448;2024-01-11T11:28:26;10.70;;;3.13;;
68273;SDS011;55104;47.356;19.448;2024-01-11T11:31:41;8.35;;;3.33;;
68273;SDS011;55104;47.356;19.448;2024-01-11T11:34:45;7.67;;;3.40;;
68273;SDS011;55104;47.356;19.448;2024-01-11T11:37:56;9.82;;;3.28;;
68273;SDS011;55104;47.356;19.448;2024-01-11T11:41:03;7.90;;;2.65;;
68273;SDS011;55104;47.356;19.448;2024-01-11T11:44:05;12.07;;;3.22;;
68273;SDS011;55104;47.356;19.448;2024-01-11T11:47:20;12.23;;;2.90;;
68273;SDS011;55104;47.356;19.448;2024-01-11T11:50:26;11.90;;;2.97;;
68273;SDS011;55104;47.356;19.448;2024-01-11T11:53:38;6.18;;;2.42;;
68273;SDS011;55104;47.356;19.448;2024-01-11T11:56:42;7.43;;;3.67;;
68273;SDS011;55104;47.356;19.448;2024-01-11T11:59:44;5.72;;;2.25;;
68273;SDS011;55104;47.356;19.448;2024-01-11T12:02:47;6.72;;;2.25;;
68273;SDS011;55104;47.356;19.448;2024-01-11T12:05:50;8.07;;;2.50;;
68273;SDS011;55104;47.356;19.448;2024-01-11T12:08:53;13.07;;;2.72;;
68273;SDS011;55104;47.356;19.448;2024-01-11T12:11:59;11.13;;;4.65;;
68273;SDS011;55104;47.356;19.448;2024-01-11T12:15:17;12.57;;;3.63;;
68273;SDS011;55104;47.356;19.448;2024-01-11T12:18:20;10.18;;;3.53;;
68273;SDS011;55104;47.356;19.448;2024-01-11T12:21:24;8.07;;;3.15;;
68273;SDS011;55104;47.356;19.448;2024-01-11T12:24:29;8.40;;;2.92;;
68273;SDS011;55104;47.356;19.448;2024-01-11T12:27:32;10.00;;;2.73;;
68273;SDS011;55104;47.356;19.448;2024-01-11T12:30:34;10.15;;;4.10;;
68273;SDS011;55104;47.356;19.448;2024-01-11T12:33:37;6.68;;;2.50;;
68273;SDS011;55104;47.356;19.448;2024-01-11T12:36:43;7.40;;;2.60;;
68273;SDS011;55104;47.356;19.448;2024-01-11T12:39:46;8.40;;;2.88;;
68273;SDS011;55104;47.356;19.448;2024-01-11T12:42:48;9.30;;;2.45;;
68273;SDS011;55104;47.356;19.448;2024-01-11T12:45:51;10.20;;;3.47;;
68273;SDS011;55104;47.356;19.448;2024-01-11T12:48:55;7.55;;;3.20;;
68273;SDS011;55104;47.356;19.448;2024-01-11T12:51:58;11.25;;;4.20;;
68273;SDS011;55104;47.356;19.448;2024-01-11T12:55:01;8.70;;;2.17;;
68273;SDS011;55104;47.356;19.448;2024-01-11T12:58:06;10.30;;;4.20;;
68273;SDS011;55104;47.356;19.448;2024-01-11T13:01:11;7.88;;;3.08;;
68273;SDS011;55104;47.356;19.448;2024-01-11T13:04:14;14.95;;;5.40;;
68273;SDS011;55104;47.356;19.448;2024-01-11T13:07:16;11.83;;;4.17;;
68273;SDS011;55104;47.356;19.448;2024-01-11T13:10:19;5.05;;;1.95;;
68273;SDS011;55104;47.356;19.448;2024-01-11T13:13:21;8.40;;;3.55;;
68273;SDS011;55104;47.356;19.448;2024-01-11T13:16:25;10.57;;;2.92;;
68273;SDS011;55104;47.356;19.448;2024-01-11T13:19:28;7.07;;;2.10;;
68273;SDS011;55104;47.356;19.448;2024-01-11T13:22:31;11.85;;;2.75;;
68273;SDS011;55104;47.356;19.448;2024-01-11T13:25:34;7.28;;;2.38;;
68273;SDS011;55104;47.356;19.448;2024-01-11T13:28:36;6.30;;;2.40;;
68273;SDS011;55104;47.356;19.448;2024-01-11T13:31:38;3.95;;;1.33;;
68273;SDS011;55104;47.356;19.448;2024-01-11T13:34:40;8.32;;;2.47;;
68273;SDS011;55104;47.356;19.448;2024-01-11T13:37:47;7.13;;;3.10;;
68273;SDS011;55104;47.356;19.448;2024-01-11T13:40:54;9.23;;;3.95;;
68273;SDS011;55104;47.356;19.448;2024-01-11T13:43:59;6.43;;;2.35;;
68273;SDS011;55104;47.356;19.448;2024-01-11T13:47:02;5.88;;;1.80;;
68273;SDS011;55104;47.356;19.448;2024-01-11T13:50:05;7.13;;;2.58;;
68273;SDS011;55104;47.356;19.448;2024-01-11T13:53:08;8.90;;;3.17;;
68273;SDS011;55104;47.356;19.448;2024-01-11T13:56:10;10.35;;;3.63;;
68273;SDS011;55104;47.356;19.448;2024-01-11T13:59:13;7.00;;;2.73;;
68273;SDS011;55104;47.356;19.448;2024-01-11T14:02:17;4.53;;;2.42;;
68273;SDS011;55104;47.356;19.448;2024-01-11T14:05:19;9.63;;;4.18;;
68273;SDS011;55104;47.356;19.448;2024-01-11T14:08:22;11.40;;;3.43;;
68273;SDS011;55104;47.356;19.448;2024-01-11T14:11:25;8.13;;;2.65;;
68273;SDS011;55104;47.356;19.448;2024-01-11T14:14:28;11.57;;;4.47;;
68273;SDS011;55104;47.356;19.448;2024-01-11T14:17:31;5.65;;;2.80;;
68273;SDS011;55104;47.356;19.448;2024-01-11T14:20:35;11.93;;;3.20;;
68273;SDS011;55104;47.356;19.448;2024-01-11T14:23:38;10.75;;;4.28;;
68273;SDS011;55104;47.356;19.448;2024-01-11T14:26:40;8.13;;;2.65;;
68273;SDS011;55104;47.356;19.448;2024-01-11T14:29:42;13.90;;;4.40;;
68273;SDS011;55104;47.356;19.448;2024-01-11T14:32:45;12.68;;;4.40;;
68273;SDS011;55104;47.356;19.448;2024-01-11T14:35:49;15.90;;;3.30;;
68273;SDS011;55104;47.356;19.448;2024-01-11T14:38:52;8.47;;;4.97;;
68273;SDS011;55104;47.356;19.448;2024-01-11T14:41:56;9.75;;;3.75;;
68273;SDS011;55104;47.356;19.448;2024-01-11T14:44:58;7.78;;;3.55;;
68273;SDS011;55104;47.356;19.448;2024-01-11T14:48:00;10.60;;;4.32;;
68273;SDS011;55104;47.356;19.448;2024-01-11T14:51:04;11.60;;;4.93;;
68273;SDS011;55104;47.356;19.448;2024-01-11T14:54:12;9.00;;;3.08;;
68273;SDS011;55104;47.356;19.448;2024-01-11T14:57:15;14.75;;;5.57;;
68273;SDS011;55104;47.356;19.448;2024-01-11T15:00:19;10.87;;;4.00;;
68273;SDS011;55104;47.356;19.448;2024-01-11T15:03:22;11.60;;;4.60;;
68273;SDS011;55104;47.356;19.448;2024-01-11T15:06:24;13.75;;;5.43;;
68273;SDS011;55104;47.356;19.448;2024-01-11T15:09:26;17.50;;;5.97;;
68273;SDS011;55104;47.356;19.448;2024-01-11T15:12:29;14.90;;;3.80;;
68273;SDS011;55104;47.356;19.448;2024-01-11T15:15:34;15.57;;;3.95;;
68273;SDS011;55104;47.356;19.448;2024-01-11T15:18:39;7.10;;;4.03;;
68273;SDS011;55104;47.356;19.448;2024-01-11T15:21:41;7.30;;;3.42;;
68273;SDS011;55104;47.356;19.448;2024-01-11T15:24:50;11.43;;;4.60;;
68273;SDS011;55104;47.356;19.448;2024-01-11T15:27:56;7.30;;;3.05;;
68273;SDS011;55104;47.356;19.448;2024-01-11T15:30:58;7.80;;;3.23;;
68273;SDS011;55104;47.356;19.448;2024-01-11T15:34:01;6.88;;;2.67;;
68273;SDS011;55104;47.356;19.448;2024-01-11T15:37:03;8.75;;;3.75;;
68273;SDS011;55104;47.356;19.448;2024-01-11T15:40:06;6.67;;;3.13;;
68273;SDS011;55104;47.356;19.448;2024-01-11T15:43:09;4.32;;;1.88;;
68273;SDS011;55104;47.356;19.448;2024-01-11T15:46:13;8.10;;;2.60;;
68273;SDS011;55104;47.356;19.448;2024-01-11T15:49:15;8.32;;;3.42;;
68273;SDS011;55104;47.356;19.448;2024-01-11T15:52:18;8.02;;;2.05;;
68273;SDS011;55104;47.356;19.448;2024-01-11T15:55:20;9.52;;;3.20;;
68273;SDS011;55104;47.356;19.448;2024-01-11T15:58:23;10.05;;;3.35;;
68273;SDS011;55104;47.356;19.448;2024-01-11T16:01:28;7.13;;;3.60;;
68273;SDS011;55104;47.356;19.448;2024-01-11T16:04:31;10.40;;;4.28;;
68273;SDS011;55104;47.356;19.448;2024-01-11T16:07:36;6.75;;;3.33;;
68273;SDS011;55104;47.356;19.448;2024-01-11T16:10:39;10.93;;;4.00;;
68273;SDS011;55104;47.356;19.448;2024-01-11T16:13:42;8.95;;;3.70;;
68273;SDS011;55104;47.356;19.448;2024-01-11T16:16:48;4.65;;;1.73;;
68273;SDS011;55104;47.356;19.448;2024-01-11T16:19:50;9.40;;;3.53;;
68273;SDS011;55104;47.356;19.448;2024-01-11T16:22:52;6.40;;;3.65;;
68273;SDS011;55104;47.356;19.448;2024-01-11T16:25:54;19.30;;;4.18;;
68273;SDS011;55104;47.356;19.448;2024-01-11T16:28:57;11.65;;;3.42;;
68273;SDS011;55104;47.356;19.448;2024-01-11T16:32:00;5.27;;;2.27;;
68273;SDS011;55104;47.356;19.448;2024-01-11T16:35:02;5.03;;;2.05;;
68273;SDS011;55104;47.356;19.448;2024-01-11T16:38:06;8.35;;;3.40;;
68273;SDS011;55104;47.356;19.448;2024-01-11T16:41:09;6.93;;;3.57;;
68273;SDS011;55104;47.356;19.448;2024-01-11T16:44:13;14.02;;;3.63;;
68273;SDS011;55104;47.356;19.448;2024-01-11T16:47:15;6.90;;;3.03;;
68273;SDS011;55104;47.356;19.448;2024-01-11T16:50:18;7.70;;;3.70;;
68273;SDS011;55104;47.356;19.448;2024-01-11T16:53:22;11.82;;;3.80;;
68273;SDS011;55104;47.356;19.448;2024-01-11T16:56:24;13.55;;;5.65;;
68273;SDS011;55104;47.356;19.448;2024-01-11T16:59:27;9.48;;;4.63;;
68273;SDS011;55104;47.356;19.448;2024-01-11T17:02:29;19.40;;;5.83;;
68273;SDS011;55104;47.356;19.448;2024-01-11T17:05:32;15.68;;;5.75;;
68273;SDS011;55104;47.356;19.448;2024-01-11T17:08:36;20.58;;;6.68;;
68273;SDS011;55104;47.356;19.448;2024-01-11T17:11:39;11.97;;;5.47;;
68273;SDS011;55104;47.356;19.448;2024-01-11T17:14:43;22.35;;;4.65;;
68273;SDS011;55104;47.356;19.448;2024-01-11T17:17:45;20.35;;;6.00;;
68273;SDS011;55104;47.356;19.448;2024-01-11T17:20:49;14.48;;;7.13;;
68273;SDS011;55104;47.356;19.448;2024-01-11T17:23:54;11.43;;;5.53;;
68273;SDS011;55104;47.356;19.448;2024-01-11T17:26:57;7.55;;;3.13;;
68273;SDS011;55104;47.356;19.448;2024-01-11T17:30:05;9.88;;;5.43;;
68273;SDS011;55104;47.356;19.448;2024-01-11T17:33:09;9.77;;;4.50;;
68273;SDS011;55104;47.356;19.448;2024-01-11T17:36:12;13.75;;;5.07;;
68273;SDS011;55104;47.356;19.448;2024-01-11T17:39:14;23.63;;;5.20;;
68273;SDS011;55104;47.356;19.448;2024-01-11T17:42:17;21.93;;;5.93;;
68273;SDS011;55104;47.356;19.448;2024-01-11T17:45:19;12.40;;;5.50;;
68273;SDS011;55104;47.356;19.448;2024-01-11T17:48:22;16.90;;;5.93;;
68273;SDS011;55104;47.356;19.448;2024-01-11T17:51:24;9.63;;;6.07;;